Time;durP1;ratioP1;P1;durP2;ratioP2;P2;SDS_P1;SDS_P2;PMS_P1;PMS_P2;Temp;Humidity;BMP_temperature;BMP_pressure;BME280_temperature;BME280_humidity;BME280_pressure;Samples;Min_cycle;Max_cycle;Signal;HPM_P1;HPM_P2
2023/07/04 00:01:01;;;;;;;;;13.33;11.33;;;;;21.06;42.37;101020.50;5076877;28;45303;-68
2023/07/04 00:03:28;;;;;;;;;10.00;9.33;;;;;21.08;42.27;101023.00;5077308;27;45550;-68
2023/07/04 00:05:55;;;;;;;;;8.00;6.67;;;;;21.11;41.96;101022.56;5075533;28;47952;-69
2023/07/04 00:08:25;;;;;;;;;10.00;8.33;;;;;21.15;42.17;101038.16;5076749;28;45545;-69
2023/07/04 00:10:51;;;;;;;;;13.33;8.33;;;;;21.05;42.39;101024.25;5077000;28;45442;-69
2023/07/04 00:13:18;;;;;;;;;9.33;7.00;;;;;21.08;42.34;101028.41;5077197;28;45458;-70
2023/07/04 00:15:53;;;;;;;;;7.33;5.00;;;;;21.02;42.72;101023.78;5077176;28;46685;-66
2023/07/04 00:18:21;;;;;;;;;6.33;5.00;;;;;20.96;42.65;101022.75;5079829;27;45406;-68
2023/07/04 00:20:54;;;;;;;;;8.67;7.00;;;;;21.04;42.44;101043.38;5080538;27;45313;-68
2023/07/04 00:23:24;;;;;;;;;6.33;6.33;;;;;20.98;42.80;101033.34;5080586;27;45461;-68
2023/07/04 00:25:50;;;;;;;;;9.67;8.33;;;;;20.96;42.95;101025.44;5079977;28;46622;-69
2023/07/04 00:28:15;;;;;;;;;8.33;6.33;;;;;20.99;42.86;101041.25;5080478;27;45228;-69
2023/07/04 00:30:42;;;;;;;;;8.00;8.00;;;;;21.00;43.05;101039.38;5080561;28;45282;-68
2023/07/04 00:33:07;;;;;;;;;6.67;6.00;;;;;20.98;43.18;101044.16;5080595;28;45546;-69
2023/07/04 00:35:33;;;;;;;;;6.33;6.33;;;;;20.88;43.06;101023.78;5061797;28;48425;-68
2023/07/04 00:37:58;;;;;;;;;6.67;5.00;;;;;20.95;43.30;101040.84;5062059;27;45346;-69
2023/07/04 00:40:26;;;;;;;;;9.33;6.00;;;;;20.92;43.02;101032.31;5080012;27;45414;-68
2023/07/04 00:42:56;;;;;;;;;8.33;6.67;;;;;20.87;43.17;101027.53;5080395;28;45272;-69
2023/07/04 00:45:23;;;;;;;;;9.67;7.00;;;;;20.88;43.33;101039.16;5061794;28;47000;-68
2023/07/04 00:47:57;;;;;;;;;11.33;5.67;;;;;20.43;43.33;100957.81;5080055;27;45288;-68
2023/07/04 00:50:27;;;;;;;;;9.00;6.33;;;;;20.45;43.44;100969.22;5080031;28;45316;-69
2023/07/04 00:52:56;;;;;;;;;4.33;4.33;;;;;20.80;43.46;101036.63;5080145;27;45492;-69
2023/07/04 00:55:22;;;;;;;;;7.33;7.33;;;;;20.74;43.42;101024.78;5079215;27;46033;-69
2023/07/04 00:57:47;;;;;;;;;6.67;6.33;;;;;20.81;43.46;101039.13;5079820;28;45559;-69
2023/07/04 01:00:18;;;;;;;;;9.67;5.33;;;;;20.74;43.67;101026.66;5061537;28;45484;-68
2023/07/04 01:02:45;;;;;;;;;4.67;4.33;;;;;20.73;43.71;101025.00;5080124;28;45320;-69
2023/07/04 01:05:14;;;;;;;;;4.67;3.67;;;;;20.69;44.00;101029.97;5079559;27;45730;-68
2023/07/04 01:07:58;;;;;;;;;3.67;3.67;;;;;20.74;44.09;101042.88;5079644;28;45418;-68
2023/07/04 01:10:32;;;;;;;;;4.00;4.00;;;;;20.58;43.94;101020.56;5079520;27;45542;-69
2023/07/04 01:12:58;;;;;;;;;5.00;5.00;;;;;20.69;44.49;101046.19;5079697;27;45312;-68
2023/07/04 01:15:23;;;;;;;;;3.00;3.00;;;;;20.71;44.27;101048.69;5079594;27;46622;-68
2023/07/04 01:17:51;;;;;;;;;7.00;6.00;;;;;20.71;44.17;101049.50;5077823;27;45567;-69
2023/07/04 01:20:17;;;;;;;;;6.67;6.67;;;;;20.61;44.38;101027.44;5061484;28;45311;-68
2023/07/04 01:23:04;;;;;;;;;3.00;3.00;;;;;20.68;44.22;101049.09;5079856;28;45403;-68
2023/07/04 01:25:50;;;;;;;;;4.33;4.00;;;;;20.66;44.36;101043.88;5079018;28;45744;-69
2023/07/04 01:28:17;;;;;;;;;4.67;4.00;;;;;20.60;44.31;101042.81;5078725;27;45272;-69
2023/07/04 01:30:44;;;;;;;;;5.00;3.67;;;;;20.62;44.44;101039.91;5079509;27;45517;-68
2023/07/04 01:33:13;;;;;;;;;5.67;4.33;;;;;20.58;44.29;101042.19;5079506;28;45590;-69
2023/07/04 01:35:39;;;;;;;;;3.00;3.00;;;;;20.52;44.41;101039.47;5061075;28;47773;-67
2023/07/04 01:38:06;;;;;;;;;7.33;3.67;;;;;20.57;44.53;101055.91;5079185;27;45483;-68
2023/07/04 01:40:33;;;;;;;;;5.00;3.00;;;;;20.15;44.54;100990.25;5079100;27;45491;-68
2023/07/04 01:42:59;;;;;;;;;3.67;3.67;;;;;20.57;44.53;101058.59;5079453;28;45322;-67
2023/07/04 01:45:24;;;;;;;;;4.33;4.33;;;;;20.49;44.46;101046.09;5060712;28;47692;-69
2023/07/04 01:47:50;;;;;;;;;7.00;5.67;;;;;20.51;44.53;101057.53;5078844;27;45481;-68
2023/07/04 01:50:16;;;;;;;;;4.67;3.00;;;;;20.47;44.82;101058.97;5079287;28;45479;-67
2023/07/04 01:52:42;;;;;;;;;2.67;2.33;;;;;20.10;44.74;101000.00;5079322;28;45410;-67
2023/07/04 01:55:09;;;;;;;;;5.00;3.67;;;;;20.41;44.75;101065.16;5078391;27;45889;-68
2023/07/04 01:57:35;;;;;;;;;5.67;4.00;;;;;20.37;44.92;101058.47;5078743;28;45430;-67
2023/07/04 02:00:00;;;;;;;;;2.00;2.00;;;;;20.25;44.85;101044.72;5079166;27;45210;-68
2023/07/04 02:02:25;;;;;;;;;2.33;2.33;;;;;20.31;45.26;101052.00;5079275;27;45387;-69
2023/07/04 02:04:54;;;;;;;;;7.33;4.67;;;;;20.27;45.34;101048.06;5060711;28;48950;-68
2023/07/04 02:07:19;;;;;;;;;4.00;4.00;;;;;20.23;45.37;101048.66;5079032;27;45245;-69
2023/07/04 02:09:44;;;;;;;;;5.00;4.67;;;;;20.23;45.42;101051.38;5060432;28;45373;-69
2023/07/04 02:12:10;;;;;;;;;3.00;3.00;;;;;20.25;45.75;101050.13;5079196;28;45497;-68
2023/07/04 02:14:35;;;;;;;;;4.00;3.00;;;;;19.80;45.89;100970.53;5078620;28;46058;-68
2023/07/04 02:17:00;;;;;;;;;7.00;5.00;;;;;20.26;45.96;101051.78;5078699;28;45330;-68
2023/07/04 02:19:26;;;;;;;;;4.00;2.67;;;;;20.22;45.80;101042.44;5060022;28;45416;-68
2023/07/04 02:21:51;;;;;;;;;4.00;3.00;;;;;20.12;46.01;101028.44;5078915;28;45431;-70
2023/07/04 02:24:16;;;;;;;;;4.67;4.67;;;;;19.87;46.06;100997.59;5078296;27;45416;-67
2023/07/04 02:26:42;;;;;;;;;3.00;3.00;;;;;19.75;45.97;100968.44;5078512;28;45253;-67
2023/07/04 02:29:07;;;;;;;;;4.67;4.67;;;;;20.20;45.97;101046.34;5078433;28;45228;-68
2023/07/04 02:31:32;;;;;;;;;4.67;4.67;;;;;20.19;46.29;101047.38;5060520;28;45537;-67
2023/07/04 02:33:58;;;;;;;;;4.00;4.00;;;;;20.16;46.34;101040.50;5078284;27;46316;-67
2023/07/04 02:36:23;;;;;;;;;3.00;3.00;;;;;20.18;46.34;101040.31;5078440;27;45262;-68
2023/07/04 02:38:48;;;;;;;;;6.00;4.67;;;;;19.80;46.47;100985.91;5077913;28;45403;-68
2023/07/04 02:41:14;;;;;;;;;6.00;3.67;;;;;20.11;46.65;101045.69;5078268;28;45272;-68
2023/07/04 02:43:39;;;;;;;;;4.67;3.33;;;;;20.10;46.81;101035.09;5078257;27;46562;-68
2023/07/04 02:46:06;;;;;;;;;5.00;4.00;;;;;20.07;46.79;101032.78;5078264;28;45209;-70
2023/07/04 02:48:33;;;;;;;;;5.67;4.00;;;;;20.05;46.87;101039.22;5078152;28;45335;-69
2023/07/04 02:50:59;;;;;;;;;4.00;4.00;;;;;20.02;46.84;101042.31;5077980;28;45438;-68
2023/07/04 02:53:25;;;;;;;;;7.00;4.67;;;;;20.01;46.97;101045.19;5059477;28;46001;-69
2023/07/04 02:55:52;;;;;;;;;4.00;4.00;;;;;19.84;46.88;101006.09;5077744;27;45278;-69
2023/07/04 02:58:19;;;;;;;;;4.33;4.00;;;;;19.97;47.25;101033.13;5078341;28;45257;-69
2023/07/04 03:00:47;;;;;;;;;5.67;5.67;;;;;19.97;47.20;101025.03;5078347;27;45504;-69
2023/07/04 03:03:13;;;;;;;;;2.00;2.00;;;;;19.92;47.10;101028.34;5077884;27;46520;-68
2023/07/04 03:05:38;;;;;;;;;5.00;4.33;;;;;19.92;47.23;101035.59;5077775;27;45463;-68
2023/07/04 03:08:04;;;;;;;;;5.33;3.33;;;;;19.90;47.24;101029.56;5078121;27;45280;-69
2023/07/04 03:10:30;;;;;;;;;5.33;4.33;;;;;19.83;47.49;101016.03;5077765;27;46094;-68
2023/07/04 03:12:56;;;;;;;;;8.00;5.00;;;;;19.90;47.59;101029.56;5077638;27;46767;-69
2023/07/04 03:15:22;;;;;;;;;5.00;3.00;;;;;19.80;47.98;101026.38;5077698;28;45290;-69
2023/07/04 03:17:47;;;;;;;;;4.67;3.67;;;;;19.70;47.89;101000.59;5075975;28;45450;-69
2023/07/04 03:20:13;;;;;;;;;3.67;3.67;;;;;19.79;47.48;101022.84;5077568;28;45301;-71
2023/07/04 03:22:42;;;;;;;;;6.00;3.33;;;;;19.79;47.36;101027.41;5059331;27;48046;-68
2023/07/04 03:25:09;;;;;;;;;3.33;2.00;;;;;19.72;47.51;101020.09;5077356;28;45310;-68
2023/07/04 03:27:36;;;;;;;;;7.00;4.00;;;;;19.71;47.54;101015.75;5077699;27;45297;-68
2023/07/04 03:30:03;;;;;;;;;3.67;3.67;;;;;19.79;47.78;101022.00;5077810;28;45472;-69
2023/07/04 03:32:28;;;;;;;;;2.67;2.67;;;;;19.77;47.69;101022.22;5077320;28;45875;-68
2023/07/04 03:35:00;;;;;;;;;1.33;1.33;;;;;19.78;47.34;101025.75;5077430;27;45521;-68
2023/07/04 03:37:26;;;;;;;;;4.33;4.33;;;;;19.75;47.36;101019.72;5077510;28;45375;-68
2023/07/04 03:39:51;;;;;;;;;3.00;3.00;;;;;19.79;47.31;101027.41;5077565;28;45542;-69
2023/07/04 03:42:17;;;;;;;;;1.00;1.00;;;;;19.78;47.52;101025.75;5077306;28;45234;-68
2023/07/04 03:44:42;;;;;;;;;8.33;3.67;;;;;19.78;47.11;101020.34;5077619;28;45486;-68
2023/07/04 03:47:07;;;;;;;;;4.33;4.00;;;;;19.48;47.05;100961.19;5077383;28;45271;-68
2023/07/04 03:49:33;;;;;;;;;4.00;4.00;;;;;19.81;47.21;101022.66;5077043;28;45365;-67
2023/07/04 03:51:59;;;;;;;;;5.00;2.67;;;;;19.68;47.78;100997.25;5078507;27;46574;-68
2023/07/04 03:54:24;;;;;;;;;4.33;3.33;;;;;19.78;47.48;101009.56;5062280;28;45232;-67
2023/07/04 03:56:49;;;;;;;;;7.33;4.67;;;;;19.78;47.43;101002.28;5062399;28;45356;-69
2023/07/04 03:59:15;;;;;;;;;4.33;3.00;;;;;19.84;47.63;101006.91;5062827;28;45538;-69
2023/07/04 04:01:40;;;;;;;;;3.00;3.00;;;;;19.84;47.88;101008.78;5062465;28;46648;-69
2023/07/04 04:04:05;;;;;;;;;5.00;4.00;;;;;19.79;47.73;100993.16;5079598;27;46009;-69
2023/07/04 04:06:31;;;;;;;;;4.00;4.00;;;;;19.83;47.66;101002.56;5062684;28;45254;-69
2023/07/04 04:08:56;;;;;;;;;3.33;3.33;;;;;19.68;47.78;100988.34;5080833;27;45557;-69
2023/07/04 04:11:22;;;;;;;;;2.00;2.00;;;;;19.46;47.46;100944.38;5080708;28;46140;-69
2023/07/04 04:13:47;;;;;;;;;4.67;3.67;;;;;19.84;47.42;101008.78;5062439;28;45450;-70
2023/07/04 04:16:12;;;;;;;;;4.33;3.33;;;;;19.85;47.62;101005.06;5062494;28;45654;-70
2023/07/04 04:18:38;;;;;;;;;5.00;3.00;;;;;19.89;47.34;101012.53;5065912;27;45244;-68
2023/07/04 04:21:03;;;;;;;;;3.00;3.00;;;;;19.83;47.32;100996.31;5060240;28;46325;-68
2023/07/04 04:23:29;;;;;;;;;3.67;2.33;;;;;19.95;47.32;101010.91;5059829;28;45331;-69
2023/07/04 04:25:54;;;;;;;;;7.67;5.00;;;;;19.90;47.10;101008.81;5060345;28;45307;-70
2023/07/04 04:28:20;;;;;;;;;3.33;3.33;;;;;19.97;47.21;101019.63;5060592;28;45374;-69
2023/07/04 04:30:47;;;;;;;;;3.33;3.33;;;;;19.96;47.14;101015.28;5041824;28;47094;-69
2023/07/04 04:33:13;;;;;;;;;4.00;3.00;;;;;19.91;47.16;101015.88;5041756;28;45550;-68
2023/07/04 04:35:41;;;;;;;;;4.67;3.00;;;;;19.98;47.17;101029.41;5060004;28;45449;-68
2023/07/04 04:38:08;;;;;;;;;4.00;4.00;;;;;19.77;47.33;100980.91;5060216;28;45308;-69
2023/07/04 04:40:33;;;;;;;;;3.00;3.00;;;;;19.93;47.34;101000.31;5059365;28;45478;-69
2023/07/04 04:42:59;;;;;;;;;5.00;4.00;;;;;20.05;47.14;101016.78;5041896;28;46212;-67
2023/07/04 04:45:24;;;;;;;;;6.33;4.00;;;;;20.16;47.11;101027.00;5060311;28;45892;-67
2023/07/04 04:47:53;;;;;;;;;5.00;3.00;;;;;20.20;47.04;101019.34;5064245;28;45805;-69
2023/07/04 04:50:30;;;;;;;;;3.00;3.00;;;;;20.21;46.85;101021.84;5080109;28;46416;-67
2023/07/04 04:52:57;;;;;;;;;5.00;4.00;;;;;19.97;46.89;100973.75;5079683;28;45247;-68
2023/07/04 04:55:23;;;;;;;;;4.67;4.67;;;;;20.08;46.80;100985.88;5079489;27;45425;-69
2023/07/04 04:57:48;;;;;;;;;4.67;2.67;;;;;20.18;47.04;101008.75;5061936;28;45265;-68
2023/07/04 05:00:16;;;;;;;;;3.67;3.00;;;;;20.29;47.00;101013.59;5079735;28;46539;-69
2023/07/04 05:02:42;;;;;;;;;3.00;3.00;;;;;20.29;47.31;101008.19;5079321;28;45332;-69
2023/07/04 05:05:08;;;;;;;;;4.33;4.33;;;;;20.33;47.07;101006.75;5079855;28;45550;-69
2023/07/04 05:07:34;;;;;;;;;5.00;5.00;;;;;20.31;46.78;101000.72;5079996;28;45261;-68
2023/07/04 05:10:00;;;;;;;;;4.00;4.00;;;;;20.45;46.98;101012.44;5079278;27;46415;-69
2023/07/04 05:12:25;;;;;;;;;5.00;5.00;;;;;20.21;46.85;100972.41;5079641;27;45489;-69
2023/07/04 05:14:51;;;;;;;;;5.00;5.00;;;;;20.55;47.20;101012.88;5061353;28;45248;-69
2023/07/04 05:17:16;;;;;;;;;4.00;3.00;;;;;20.59;46.62;101016.00;5061010;28;45352;-69
2023/07/04 05:19:42;;;;;;;;;7.67;5.33;;;;;20.58;46.70;101017.03;5078373;28;45670;-69
2023/07/04 05:22:08;;;;;;;;;6.00;5.33;;;;;20.71;46.62;101024.38;5079176;28;45506;-70
2023/07/04 05:24:33;;;;;;;;;4.67;2.33;;;;;20.77;46.53;101027.06;5079247;28;45591;-68
2023/07/04 05:26:58;;;;;;;;;5.00;4.67;;;;;20.78;46.75;101020.63;5079667;27;45320;-68
2023/07/04 05:29:24;;;;;;;;;4.67;2.33;;;;;20.86;46.26;101025.88;5078634;28;63348;-69
2023/07/04 05:31:49;;;;;;;;;4.33;4.33;;;;;20.95;46.09;101021.09;5079401;28;59336;-69
2023/07/04 05:34:15;;;;;;;;;7.00;5.33;;;;;21.01;45.95;101017.56;5079443;27;45367;-68
2023/07/04 05:36:41;;;;;;;;;3.00;3.00;;;;;20.71;45.86;100941.44;5079573;28;45333;-70
2023/07/04 05:39:06;;;;;;;;;3.00;3.00;;;;;21.15;45.80;101015.72;5060489;28;47258;-69
2023/07/04 05:41:34;;;;;;;;;4.67;3.67;;;;;21.26;45.83;101023.25;5079093;27;45318;-68
2023/07/04 05:44:03;;;;;;;;;5.00;5.00;;;;;21.35;45.46;101026.56;5079174;28;45420;-68
2023/07/04 05:46:29;;;;;;;;;5.00;5.00;;;;;21.35;45.45;101011.16;5079050;27;45496;-69
2023/07/04 05:48:55;;;;;;;;;5.67;4.67;;;;;21.47;45.40;101023.03;5078464;27;46502;-68
2023/07/04 05:51:21;;;;;;;;;7.00;6.00;;;;;21.39;44.97;101004.31;5058146;28;45389;-68
2023/07/04 05:53:48;;;;;;;;;6.67;4.33;;;;;21.62;44.88;101020.09;5055259;28;45526;-68
2023/07/04 05:56:17;;;;;;;;;5.67;5.00;;;;;21.84;44.42;101026.13;5077477;28;45594;-69
2023/07/04 05:58:45;;;;;;;;;7.00;6.00;;;;;22.05;44.38;101030.50;5078239;27;47318;-68
2023/07/04 06:01:23;;;;;;;;;4.00;4.00;;;;;22.06;43.74;101016.75;5068353;28;45604;-69
2023/07/04 06:03:49;;;;;;;;;5.00;4.00;;;;;22.20;43.59;101013.97;5078826;27;45541;-68
2023/07/04 06:06:25;;;;;;;;;4.00;4.00;;;;;22.33;43.37;101024.75;5078484;28;45385;-68
2023/07/04 06:08:51;;;;;;;;;4.00;2.67;;;;;22.43;43.09;101019.72;5077815;28;45996;-68
2023/07/04 06:11:18;;;;;;;;;4.00;4.00;;;;;22.69;42.88;101025.00;5078420;27;45360;-68
2023/07/04 06:13:43;;;;;;;;;4.33;4.33;;;;;22.94;42.57;101018.84;5077008;27;45471;-67
2023/07/04 06:16:09;;;;;;;;;4.00;4.00;;;;;22.94;41.96;100970.03;5077930;27;45262;-71
2023/07/04 06:18:35;;;;;;;;;7.67;4.33;;;;;23.74;40.50;101014.47;5078046;28;46455;-68
2023/07/04 06:21:18;;;;;;;;;6.00;5.00;;;;;24.20;40.45;101011.22;5078051;28;45402;-70
2023/07/04 06:23:43;;;;;;;;;5.67;4.00;;;;;24.72;39.62;101006.22;5065726;28;45446;-72
2023/07/04 06:26:10;;;;;;;;;3.33;3.33;;;;;25.17;38.68;101000.31;5063646;28;45301;-69
2023/07/04 06:28:37;;;;;;;;;3.33;3.33;;;;;25.63;37.62;101005.00;5078021;28;45585;-70
2023/07/04 06:31:04;;;;;;;;;5.67;5.67;;;;;26.11;37.33;101005.78;5080571;27;45218;-69
2023/07/04 06:33:31;;;;;;;;;7.00;5.00;;;;;26.41;35.83;101003.72;5086885;27;45469;-68
2023/07/04 06:35:56;;;;;;;;;5.67;4.00;;;;;26.72;35.29;101005.13;5096487;27;45473;-69
2023/07/04 06:38:22;;;;;;;;;8.00;5.33;;;;;27.00;34.82;100998.03;5083063;27;45604;-70
2023/07/04 06:40:56;;;;;;;;;3.33;3.33;;;;;27.34;34.43;100999.69;5077296;28;45466;-69
2023/07/04 06:43:21;;;;;;;;;5.00;5.00;;;;;27.70;33.78;100981.16;5078106;28;45255;-69
2023/07/04 06:45:47;;;;;;;;;6.33;6.00;;;;;27.96;33.22;100980.41;5077427;28;45321;-68
2023/07/04 06:48:12;;;;;;;;;4.67;4.00;;;;;28.39;31.54;101000.66;5075920;28;46057;-69
2023/07/04 06:50:37;;;;;;;;;4.00;4.00;;;;;28.51;31.28;101001.34;5055811;28;47976;-71
2023/07/04 06:53:03;;;;;;;;;4.33;4.33;;;;;28.65;30.70;100999.88;5055847;28;45364;-69
2023/07/04 06:55:28;;;;;;;;;8.67;4.00;;;;;28.96;30.61;101008.41;5057342;28;45339;-68
2023/07/04 06:57:53;;;;;;;;;1.67;1.67;;;;;29.25;30.67;100998.00;5071120;28;45607;-69
2023/07/04 07:00:19;;;;;;;;;7.67;3.33;;;;;29.55;30.33;101006.44;5077191;27;45494;-70
2023/07/04 07:02:49;;;;;;;;;5.00;5.00;;;;;29.76;29.84;101018.38;5059174;28;45337;-69
2023/07/04 07:05:15;;;;;;;;;5.33;4.67;;;;;29.58;29.72;101021.53;5079389;27;45473;-69
2023/07/04 07:07:41;;;;;;;;;4.00;3.00;;;;;29.23;30.21;101020.13;5071125;27;46449;-70
2023/07/04 07:10:07;;;;;;;;;7.00;5.67;;;;;28.91;30.50;101013.84;5076911;28;45361;-73
2023/07/04 07:12:32;;;;;;;;;5.67;4.00;;;;;28.59;30.86;101020.03;5075095;27;45486;-70
2023/07/04 07:14:57;;;;;;;;;8.33;4.00;;;;;27.74;31.06;100965.91;5075013;28;45449;-69
2023/07/04 07:17:23;;;;;;;;;6.00;4.00;;;;;27.59;32.02;101016.47;5058734;28;46298;-69
2023/07/04 07:19:48;;;;;;;;;3.67;3.00;;;;;27.23;32.45;101015.09;5054901;28;46566;-67
2023/07/04 07:22:14;;;;;;;;;5.00;3.00;;;;;27.09;32.91;101032.03;5072961;27;62190;-71
2023/07/04 07:24:39;;;;;;;;;3.33;3.33;;;;;27.02;32.64;101028.63;5058779;28;45469;-71
2023/07/04 07:27:05;;;;;;;;;3.67;3.33;;;;;27.14;33.27;101034.84;5076501;27;46588;-70
2023/07/04 07:29:30;;;;;;;;;9.00;5.00;;;;;27.15;32.68;101012.75;5075880;28;45485;-70
2023/07/04 07:31:55;;;;;;;;;11.00;9.00;;;;;26.92;33.17;100971.94;5056734;27;45280;-70
2023/07/04 07:34:21;;;;;;;;;8.00;4.67;;;;;27.23;32.64;101022.44;5088554;27;45419;-70
2023/07/04 07:36:47;;;;;;;;;3.00;3.00;;;;;27.20;32.70;101022.94;5075278;28;45647;-71
2023/07/04 07:39:15;;;;;;;;;11.00;10.00;;;;;27.25;32.61;101020.31;5081817;27;45462;-70
2023/07/04 07:41:46;;;;;;;;;6.00;5.00;;;;;27.39;32.67;101021.59;5090515;27;45593;-69
2023/07/04 07:44:16;;;;;;;;;3.00;2.33;;;;;27.30;32.38;101009.47;5068478;27;45637;-70
2023/07/04 07:46:42;;;;;;;;;3.33;3.33;;;;;27.34;32.11;101007.06;5096903;27;45500;-70
2023/07/04 07:49:08;;;;;;;;;3.00;3.00;;;;;27.30;32.06;100995.00;5078941;27;45269;-71
2023/07/04 07:51:34;;;;;;;;;11.33;11.33;;;;;27.26;32.50;100968.19;5056592;28;45575;-71
2023/07/04 07:54:00;;;;;;;;;8.00;7.00;;;;;27.62;31.85;101008.84;5057762;28;45523;-70
2023/07/04 07:56:31;;;;;;;;;6.00;4.00;;;;;27.55;31.94;100996.19;5076560;27;45618;-71
2023/07/04 07:58:58;;;;;;;;;5.67;4.00;;;;;27.67;31.65;101020.72;5091847;27;45493;-71
2023/07/04 08:01:26;;;;;;;;;5.33;5.00;;;;;27.85;31.56;101003.22;5078704;27;45531;-70
2023/07/04 08:03:52;;;;;;;;;4.00;4.00;;;;;27.88;31.74;100968.03;5096830;27;45393;-72
2023/07/04 08:06:26;;;;;;;;;7.67;5.00;;;;;28.38;31.18;101004.47;5078450;27;46998;-70
2023/07/04 08:08:53;;;;;;;;;9.00;7.67;;;;;28.64;31.13;101003.69;5075656;27;45371;-69
2023/07/04 08:11:19;;;;;;;;;6.33;4.33;;;;;28.87;30.44;100994.38;5073233;27;45438;-70
2023/07/04 08:13:45;;;;;;;;;4.67;4.67;;;;;28.81;30.40;100948.84;5051181;28;45766;-68
2023/07/04 08:16:11;;;;;;;;;7.00;4.33;;;;;29.19;29.20;100988.06;5070372;28;47584;-69
2023/07/04 08:18:36;;;;;;;;;6.00;5.00;;;;;29.33;29.46;100984.63;5076117;27;45474;-70
2023/07/04 08:21:03;;;;;;;;;5.00;5.00;;;;;29.51;28.86;100977.09;5076436;27;45694;-70
2023/07/04 08:23:30;;;;;;;;;7.33;5.33;;;;;29.58;28.59;100983.16;5056275;28;45320;-69
2023/07/04 08:25:56;;;;;;;;;5.00;4.67;;;;;29.56;28.19;100988.09;5057824;28;47949;-69
2023/07/04 08:28:22;;;;;;;;;3.33;3.33;;;;;29.50;28.67;100959.03;5082890;27;45513;-70
2023/07/04 08:30:49;;;;;;;;;5.33;5.33;;;;;29.70;28.72;100981.06;5075648;27;45446;-70
2023/07/04 08:33:17;;;;;;;;;4.67;4.00;;;;;29.85;28.04;100972.94;5062970;27;46427;-70
2023/07/04 08:35:55;;;;;;;;;5.67;5.67;;;;;29.92;27.67;100981.72;5083426;27;45518;-69
2023/07/04 08:38:21;;;;;;;;;5.00;3.00;;;;;30.03;27.43;100990.00;5072407;27;45426;-71
2023/07/04 08:40:46;;;;;;;;;7.33;3.33;;;;;30.13;27.75;100990.06;5078795;27;45331;-69
2023/07/04 08:43:12;;;;;;;;;4.33;3.33;;;;;30.15;27.36;100985.16;5080850;27;45403;-70
2023/07/04 08:45:38;;;;;;;;;5.00;5.00;;;;;30.11;26.92;100976.63;5078727;27;46058;-71
2023/07/04 08:48:04;;;;;;;;;3.67;3.67;;;;;30.18;27.84;100970.91;5077421;27;45460;-69
2023/07/04 08:50:33;;;;;;;;;4.00;4.00;;;;;30.40;27.24;100967.94;5075722;27;45539;-70
2023/07/04 08:53:05;;;;;;;;;5.00;5.00;;;;;30.45;25.91;100960.56;5077644;27;45486;-69
2023/07/04 08:55:34;;;;;;;;;4.33;3.00;;;;;30.79;27.42;100963.66;5078646;28;47893;-68
2023/07/04 08:58:02;;;;;;;;;4.67;4.00;;;;;31.34;26.06;100944.72;5059016;28;46922;-67
2023/07/04 09:00:35;;;;;;;;;4.00;4.00;;;;;31.96;24.98;100968.22;5080196;27;45432;-68
2023/07/04 09:03:16;;;;;;;;;11.00;9.00;;;;;32.45;24.65;100964.72;5079160;27;45369;-68
2023/07/04 09:06:03;;;;;;;;;5.00;5.00;;;;;33.14;23.62;100944.38;5078562;28;45863;-69
2023/07/04 09:08:47;;;;;;;;;5.33;4.00;;;;;34.05;22.41;100965.50;5076326;27;45398;-68
2023/07/04 09:11:16;;;;;;;;;7.00;6.00;;;;;34.74;22.42;100944.66;5065983;28;45478;-68
2023/07/04 09:13:44;;;;;;;;;6.33;4.33;;;;;35.22;21.09;100921.47;5077846;27;45544;-67
2023/07/04 09:16:16;;;;;;;;;7.00;4.67;;;;;35.53;21.59;100938.34;5078845;27;45616;-67
2023/07/04 09:18:41;;;;;;;;;4.67;4.67;;;;;36.18;20.87;100949.19;5078856;27;45487;-69
2023/07/04 09:21:12;;;;;;;;;3.67;3.67;;;;;36.48;20.80;100950.47;5060505;28;45355;-68
2023/07/04 09:23:39;;;;;;;;;6.67;6.67;;;;;37.09;20.57;100955.34;5078550;27;45773;-68
2023/07/04 09:26:09;;;;;;;;;5.00;5.00;;;;;37.52;19.84;100948.44;5077200;28;46995;-69
2023/07/04 09:28:39;;;;;;;;;5.33;4.00;;;;;37.55;19.10;100912.53;5072970;27;45474;-70
2023/07/04 09:31:10;;;;;;;;;8.67;6.00;;;;;36.98;20.22;100845.88;5079707;27;45333;-68
2023/07/04 09:33:36;;;;;;;;;4.33;4.00;;;;;37.28;19.34;100943.25;5089702;27;45324;-68
2023/07/04 09:36:03;;;;;;;;;5.00;5.00;;;;;36.66;19.93;100927.31;5069818;28;46248;-70
2023/07/04 09:39:04;;;;;;;;;4.67;4.00;;;;;36.41;20.84;100937.03;5074974;27;45759;-70
2023/07/04 09:41:32;;;;;;;;;6.33;6.33;;;;;36.41;20.84;100936.22;5076877;27;45399;-68
2023/07/04 09:44:15;;;;;;;;;5.00;5.00;;;;;36.28;20.67;100937.06;5078318;27;45482;-72
2023/07/04 09:46:47;;;;;;;;;6.00;6.00;;;;;36.10;20.75;100919.47;5074357;27;46641;-69
2023/07/04 09:49:25;;;;;;;;;6.00;6.00;;;;;35.91;20.42;100937.03;5065033;27;45660;-68
2023/07/04 09:52:04;;;;;;;;;5.00;5.00;;;;;35.48;21.35;100941.22;5075675;28;45732;-68
2023/07/04 09:54:34;;;;;;;;;6.67;5.33;;;;;34.96;21.84;100937.69;5077006;27;45329;-68
2023/07/04 09:57:20;;;;;;;;;7.00;6.00;;;;;34.38;22.53;100940.78;5076570;27;47615;-69
2023/07/04 09:59:46;;;;;;;;;8.00;4.00;;;;;33.72;22.96;100883.69;5059001;28;46471;-69
2023/07/04 10:02:18;;;;;;;;;6.33;6.00;;;;;33.94;22.16;100930.88;5057410;28;45406;-69
2023/07/04 10:04:49;;;;;;;;;5.00;5.00;;;;;33.61;22.33;100882.16;5055249;27;45534;-70
2023/07/04 10:07:17;;;;;;;;;3.00;3.00;;;;;34.03;22.98;100931.84;5077989;28;46644;-68
2023/07/04 10:10:14;;;;;;;;;5.00;5.00;;;;;33.97;22.84;100929.47;5059381;28;45281;-69
2023/07/04 10:12:44;;;;;;;;;6.33;6.33;;;;;33.99;22.94;100930.81;5056574;28;45477;-68
2023/07/04 10:15:10;;;;;;;;;9.00;6.00;;;;;33.78;23.39;100910.09;5077539;27;45733;-68
2023/07/04 10:17:39;;;;;;;;;5.00;5.00;;;;;33.42;23.66;100906.91;5077701;28;46434;-69
2023/07/04 10:20:12;;;;;;;;;6.67;5.33;;;;;32.81;23.88;100864.25;5076611;27;45379;-69
2023/07/04 10:22:48;;;;;;;;;6.67;6.67;;;;;32.87;24.54;100907.19;5076538;28;45370;-69
2023/07/04 10:25:17;;;;;;;;;4.67;4.67;;;;;32.46;24.70;100905.81;5076773;27;45270;-68
2023/07/04 10:27:48;;;;;;;;;9.00;6.33;;;;;32.08;25.30;100909.03;5058897;28;46786;-69
2023/07/04 10:30:19;;;;;;;;;5.00;5.00;;;;;32.08;25.94;100897.22;5095875;27;45377;-68
2023/07/04 10:32:50;;;;;;;;;5.33;5.33;;;;;31.97;25.59;100898.38;5098344;27;45358;-68
2023/07/04 10:35:21;;;;;;;;;8.00;6.00;;;;;31.87;25.94;100899.25;5098107;27;45564;-68
2023/07/04 10:37:52;;;;;;;;;4.00;4.00;;;;;31.37;26.14;100851.56;5079404;27;47641;-69
2023/07/04 10:40:19;;;;;;;;;8.67;8.33;;;;;31.52;26.23;100904.84;5055567;28;45389;-68
2023/07/04 10:42:55;;;;;;;;;6.00;6.00;;;;;31.17;26.83;100885.41;5059630;28;45324;-75
2023/07/04 10:45:23;;;;;;;;;6.00;5.00;;;;;31.20;27.03;100896.94;5077924;27;45262;-68
2023/07/04 10:47:52;;;;;;;;;9.00;7.00;;;;;31.11;27.20;100882.94;5077135;28;45842;-67
2023/07/04 10:50:33;;;;;;;;;5.33;5.33;;;;;30.39;27.62;100823.66;5074546;27;45585;-68
2023/07/04 10:52:59;;;;;;;;;4.33;4.33;;;;;30.82;27.92;100893.66;5075656;28;45439;-68
2023/07/04 10:55:35;;;;;;;;;5.33;5.33;;;;;30.58;28.15;100883.19;5057385;28;46147;-69
2023/07/04 10:58:22;;;;;;;;;4.67;4.67;;;;;30.59;27.95;100884.00;5058996;28;47492;-69
2023/07/04 11:00:59;;;;;;;;;9.67;9.67;;;;;30.44;28.38;100882.09;5076349;28;45330;-69
2023/07/04 11:03:37;;;;;;;;;9.00;8.00;;;;;30.26;28.43;100877.97;5074938;27;45440;-69
2023/07/04 11:06:09;;;;;;;;;6.00;6.00;;;;;30.31;28.58;100882.63;5058757;28;45605;-69
2023/07/04 11:08:35;;;;;;;;;5.00;5.00;;;;;30.29;28.84;100879.34;5076675;27;45577;-69
2023/07/04 11:11:13;;;;;;;;;6.00;5.00;;;;;30.30;28.28;100867.25;5058683;28;45330;-69
2023/07/04 11:13:51;;;;;;;;;7.67;4.67;;;;;30.29;28.52;100862.88;5079390;27;45225;-68
2023/07/04 11:16:22;;;;;;;;;10.00;8.00;;;;;30.36;29.11;100862.59;5098033;27;45448;-68
2023/07/04 11:19:03;;;;;;;;;6.67;6.33;;;;;30.15;28.15;100856.25;5096939;27;45979;-67
2023/07/04 11:21:29;;;;;;;;;7.00;5.00;;;;;30.03;28.94;100863.88;5078975;27;45560;-68
2023/07/04 11:24:15;;;;;;;;;5.00;3.67;;;;;29.97;29.18;100855.63;5078856;27;45503;-67
2023/07/04 11:27:00;;;;;;;;;7.00;7.00;;;;;29.92;29.86;100843.84;5073995;27;45777;-68
2023/07/04 11:29:26;;;;;;;;;9.33;9.33;;;;;30.09;29.80;100841.72;5075758;27;45576;-68